createdAt,value
2019-01-23T00:00:31.492Z,47.57
2019-01-23T00:02:59.870Z,50.67
2019-01-23T00:05:28.330Z,41.77
2019-01-23T00:07:56.707Z,50.03
2019-01-23T00:10:25.096Z,46.47
2019-01-23T00:12:53.471Z,47.50
2019-01-23T00:15:21.855Z,45.60
2019-01-23T00:17:50.229Z,46.93
2019-01-23T00:20:18.618Z,47.27
2019-01-23T00:22:46.996Z,42.20
2019-01-23T00:25:15.491Z,46.70
2019-01-23T00:27:43.867Z,45.70
2019-01-23T00:30:14.301Z,44.87
2019-01-23T00:32:42.688Z,42.50
2019-01-23T00:35:11.144Z,47.37
2019-01-23T00:37:39.523Z,42.93
2019-01-23T00:40:15.829Z,46.60
2019-01-23T00:42:44.375Z,44.83
2019-01-23T00:45:16.439Z,48.27
2019-01-23T00:47:44.881Z,45.07
2019-01-23T00:50:14.912Z,51.50
2019-01-23T00:52:44.017Z,48.23
2019-01-23T00:55:17.033Z,48.00
2019-01-23T00:57:45.409Z,39.73
2019-01-23T01:00:19.981Z,43.70
2019-01-23T01:02:48.628Z,44.10
2019-01-23T01:05:17.656Z,46.53
2019-01-23T01:07:46.083Z,50.67
2019-01-23T01:10:17.015Z,57.93
2019-01-23T01:12:45.392Z,54.00
2019-01-23T01:15:14.075Z,48.37
2019-01-23T01:17:42.526Z,49.70
2019-01-23T01:20:15.446Z,46.70
2019-01-23T01:22:43.903Z,50.60
2019-01-23T01:25:17.772Z,44.50
2019-01-23T01:27:46.331Z,49.20
2019-01-23T01:30:17.365Z,51.10
2019-01-23T01:32:45.737Z,49.53
2019-01-23T01:35:14.123Z,47.40
2019-01-23T01:37:42.566Z,49.77
2019-01-23T01:40:13.299Z,52.50
2019-01-23T01:42:41.678Z,55.23
2019-01-23T01:45:11.599Z,48.70
2019-01-23T01:47:39.975Z,57.43
2019-01-23T01:50:11.371Z,50.00
2019-01-23T01:52:39.821Z,48.23
2019-01-23T01:55:09.943Z,48.00
2019-01-23T01:57:38.324Z,50.30
2019-01-23T02:00:13.053Z,45.03
2019-01-23T02:02:41.427Z,47.47
2019-01-23T02:05:09.979Z,46.10
2019-01-23T02:07:38.355Z,48.60
2019-01-23T02:10:10.284Z,48.90
2019-01-23T02:12:38.664Z,45.57
2019-01-23T02:15:09.491Z,51.13
2019-01-23T02:17:37.873Z,44.00
2019-01-23T02:20:15.678Z,50.73
2019-01-23T02:22:44.128Z,48.17
2019-01-23T02:25:12.752Z,42.83
2019-01-23T02:27:41.984Z,52.07
2019-01-23T02:30:16.527Z,49.70
2019-01-23T02:32:44.989Z,47.37
2019-01-23T02:35:13.479Z,47.60
2019-01-23T02:37:41.950Z,57.80
2019-01-23T02:40:16.144Z,47.40
2019-01-23T02:42:44.518Z,50.73
2019-01-23T02:45:13.344Z,46.20
2019-01-23T02:47:41.724Z,51.77
2019-01-23T02:50:12.245Z,49.57
2019-01-23T02:52:40.632Z,46.30
2019-01-23T02:55:10.746Z,52.27
2019-01-23T02:57:39.131Z,58.40
2019-01-23T03:00:10.561Z,43.90
2019-01-23T03:02:38.956Z,45.93
2019-01-23T03:05:10.771Z,44.63
2019-01-23T03:07:39.160Z,42.63
2019-01-23T03:10:10.680Z,44.07
2019-01-23T03:12:39.116Z,49.17
2019-01-23T03:15:10.538Z,50.07
2019-01-23T03:17:38.920Z,51.57
2019-01-23T03:20:12.334Z,51.10
2019-01-23T03:22:40.720Z,45.43
2019-01-23T03:25:11.236Z,52.87
2019-01-23T03:27:39.625Z,44.87
2019-01-23T03:30:14.051Z,50.07
2019-01-23T03:32:42.451Z,48.93
2019-01-23T03:35:10.955Z,44.50
2019-01-23T03:37:39.352Z,51.20
2019-01-23T03:40:10.777Z,47.63
2019-01-23T03:42:39.175Z,50.00
2019-01-23T03:45:09.788Z,54.43
2019-01-23T03:47:38.249Z,42.73
2019-01-23T03:50:10.092Z,47.20
2019-01-23T03:52:38.474Z,51.13
2019-01-23T03:55:08.979Z,46.10
2019-01-23T03:57:37.433Z,51.67
2019-01-23T04:00:08.998Z,48.93
2019-01-23T04:02:37.388Z,51.13
2019-01-23T04:05:08.612Z,54.67
2019-01-23T04:07:36.995Z,57.50
2019-01-23T04:10:08.428Z,51.50
2019-01-23T04:12:36.853Z,51.83
2019-01-23T04:15:07.890Z,49.27
2019-01-23T04:17:36.276Z,46.33
2019-01-23T04:20:10.296Z,54.83
2019-01-23T04:22:38.690Z,51.30
2019-01-23T04:25:09.002Z,46.07
2019-01-23T04:27:37.391Z,51.30
2019-01-23T04:30:11.868Z,56.53
2019-01-23T04:32:40.250Z,52.77
2019-01-23T04:35:08.752Z,49.30
2019-01-23T04:37:37.095Z,53.77
2019-01-23T04:40:08.510Z,49.67
2019-01-23T04:42:36.912Z,51.60
2019-01-23T04:45:08.428Z,46.80
2019-01-23T04:47:36.824Z,50.83
2019-01-23T04:50:08.052Z,48.13
2019-01-23T04:52:41.010Z,47.57
2019-01-23T04:55:09.478Z,51.87
2019-01-23T04:57:37.929Z,44.00
2019-01-23T05:00:10.237Z,45.63
2019-01-23T05:02:38.608Z,47.67
2019-01-23T05:05:08.536Z,50.50
2019-01-23T05:07:36.914Z,46.63
2019-01-23T05:10:07.026Z,46.80
2019-01-23T05:12:35.407Z,50.97
2019-01-23T05:15:04.969Z,49.87
2019-01-23T05:17:33.348Z,58.87
2019-01-23T05:20:01.731Z,49.90
2019-01-23T05:22:30.130Z,56.13
2019-01-23T05:24:58.627Z,46.50
2019-01-23T05:27:27.004Z,45.83
2019-01-23T05:29:55.401Z,53.67
2019-01-23T05:32:23.783Z,44.70
2019-01-23T05:34:52.251Z,43.27
2019-01-23T05:37:20.651Z,47.07
2019-01-23T05:39:49.051Z,47.73
2019-01-23T05:42:17.429Z,49.40
2019-01-23T05:44:45.941Z,55.57
2019-01-23T05:47:14.341Z,47.60
2019-01-23T05:49:42.734Z,52.80
2019-01-23T05:52:11.112Z,48.70
2019-01-23T05:54:39.524Z,49.23
2019-01-23T05:57:07.927Z,46.13
2019-01-23T05:59:36.358Z,51.83
2019-01-23T06:02:04.828Z,46.37
2019-01-23T06:04:33.268Z,47.33
2019-01-23T06:07:01.662Z,46.00
2019-01-23T06:09:30.078Z,48.00
2019-01-23T06:11:58.438Z,48.57
2019-01-23T06:14:26.862Z,49.53
2019-01-23T06:16:55.272Z,59.20
2019-01-23T06:19:23.659Z,46.97
2019-01-23T06:21:52.035Z,45.90
2019-01-23T06:24:20.426Z,45.00
2019-01-23T06:26:48.798Z,56.83
2019-01-23T06:29:17.266Z,64.20
2019-01-23T06:31:45.653Z,52.40
2019-01-23T06:34:14.039Z,51.80
2019-01-23T06:36:42.425Z,51.10
2019-01-23T06:39:10.802Z,48.33
2019-01-23T06:41:39.182Z,45.97
2019-01-23T06:44:07.566Z,45.50
2019-01-23T06:46:35.952Z,52.27
2019-01-23T06:49:04.512Z,51.83
2019-01-23T06:51:33.159Z,51.70
2019-01-23T06:54:01.552Z,51.23
2019-01-23T06:56:29.944Z,49.53
2019-01-23T06:58:58.321Z,46.13
2019-01-23T07:01:26.708Z,50.37
2019-01-23T07:03:55.083Z,37.70
2019-01-23T07:06:23.467Z,49.80
2019-01-23T07:08:51.902Z,47.97
2019-01-23T07:11:20.292Z,46.53
2019-01-23T07:13:48.673Z,30.93
2019-01-23T07:16:17.059Z,44.73
2019-01-23T07:18:45.977Z,49.10
2019-01-23T07:21:14.403Z,46.67
2019-01-23T07:23:42.781Z,52.43
2019-01-23T07:26:11.171Z,45.60
2019-01-23T07:28:39.566Z,50.67
2019-01-23T07:31:07.958Z,50.03
2019-01-23T07:33:36.335Z,52.73
2019-01-23T07:36:04.730Z,53.80
2019-01-23T07:38:33.116Z,55.60
2019-01-23T07:41:01.504Z,45.00
2019-01-23T07:43:29.883Z,55.07
2019-01-23T07:45:58.271Z,51.97
2019-01-23T07:48:26.641Z,58.87
2019-01-23T07:50:55.052Z,47.37
2019-01-23T07:53:23.426Z,51.90
2019-01-23T07:55:51.830Z,47.60
2019-01-23T07:58:20.210Z,45.80
2019-01-23T08:00:48.589Z,51.87
2019-01-23T08:03:16.977Z,49.07
2019-01-23T08:05:45.358Z,50.23
2019-01-23T08:08:13.748Z,46.57
2019-01-23T08:10:42.128Z,53.10
2019-01-23T08:13:10.569Z,48.17
2019-01-23T08:15:38.896Z,46.37
2019-01-23T08:18:07.453Z,47.20
2019-01-23T08:20:35.833Z,50.93
2019-01-23T08:23:04.289Z,56.27
2019-01-23T08:25:32.671Z,50.40
2019-01-23T08:28:01.055Z,50.70
2019-01-23T08:30:29.433Z,49.40
2019-01-23T08:32:57.829Z,50.30
2019-01-23T08:35:26.802Z,58.10
2019-01-23T08:37:55.263Z,46.73
2019-01-23T08:40:23.731Z,48.57
2019-01-23T08:42:52.283Z,54.30
2019-01-23T08:45:20.666Z,53.70
2019-01-23T08:47:49.054Z,47.63
2019-01-23T08:50:26.428Z,52.10
2019-01-23T08:52:55.085Z,54.53
2019-01-23T08:55:23.548Z,52.70
2019-01-23T08:57:51.940Z,43.60
2019-01-23T09:00:20.386Z,51.30
2019-01-23T09:02:48.778Z,47.93
2019-01-23T09:05:17.220Z,60.30
2019-01-23T09:07:45.769Z,52.77
2019-01-23T09:10:28.069Z,52.30
2019-01-23T09:12:56.457Z,48.97
2019-01-23T09:15:24.912Z,47.23
2019-01-23T09:18:33.213Z,48.77
2019-01-23T09:21:01.595Z,53.07
2019-01-23T09:23:29.979Z,46.47
2019-01-23T09:26:31.826Z,45.60
2019-01-23T09:32:01.933Z,51.10
2019-01-23T09:35:08.902Z,48.27
2019-01-23T09:38:17.257Z,43.00
2019-01-23T09:41:25.546Z,46.30
2019-01-23T09:44:33.891Z,48.30
2019-01-23T09:47:42.189Z,45.77
2019-01-23T09:50:49.152Z,52.67
2019-01-23T09:53:57.460Z,46.90
2019-01-23T09:56:25.838Z,44.27
2019-01-23T09:58:54.223Z,49.13
2019-01-23T10:01:22.600Z,53.20
2019-01-23T10:03:51.037Z,34.23
2019-01-23T10:06:19.508Z,42.13
2019-01-23T10:08:47.901Z,37.87
2019-01-23T10:11:16.282Z,46.30
2019-01-23T10:13:44.668Z,33.00
2019-01-23T10:16:13.048Z,47.30
2019-01-23T10:18:41.435Z,41.80
2019-01-23T10:21:09.819Z,56.80
2019-01-23T10:23:38.445Z,45.30
2019-01-23T10:26:06.848Z,38.80
2019-01-23T10:28:35.259Z,44.17
2019-01-23T10:31:06.686Z,49.47
2019-01-23T10:33:33.739Z,49.27
2019-01-23T10:36:02.131Z,44.17
2019-01-23T10:38:30.509Z,40.10
2019-01-23T10:40:58.896Z,49.60
2019-01-23T10:43:27.447Z,44.33
2019-01-23T10:45:55.831Z,46.73
2019-01-23T10:48:24.212Z,30.90
2019-01-23T10:50:52.600Z,43.20
2019-01-23T10:53:20.971Z,48.40
2019-01-23T10:55:49.364Z,52.80
2019-01-23T10:58:17.740Z,55.03
2019-01-23T11:00:46.130Z,51.53
2019-01-23T11:03:14.513Z,44.90
2019-01-23T11:05:42.895Z,37.40
2019-01-23T11:08:11.327Z,52.70
2019-01-23T11:10:40.628Z,51.33
2019-01-23T11:13:09.005Z,54.70
2019-01-23T11:15:37.492Z,46.17
2019-01-23T11:18:06.480Z,45.83
2019-01-23T11:20:34.968Z,48.17
2019-01-23T11:23:03.415Z,43.43
2019-01-23T11:25:31.925Z,51.70
2019-01-23T11:28:00.347Z,45.97
2019-01-23T11:30:28.879Z,47.97
2019-01-23T11:32:57.660Z,54.60
2019-01-23T11:35:26.629Z,47.80
2019-01-23T11:37:55.709Z,47.70
2019-01-23T11:40:29.442Z,48.33
2019-01-23T11:42:57.952Z,47.60
2019-01-23T11:45:26.889Z,46.57
2019-01-23T11:47:55.414Z,50.30
2019-01-23T11:50:23.790Z,50.43
2019-01-23T11:52:52.303Z,55.13
2019-01-23T11:55:20.756Z,43.23
2019-01-23T11:57:49.310Z,55.50
2019-01-23T12:00:23.929Z,44.77
2019-01-23T12:02:52.296Z,50.50
2019-01-23T12:05:22.327Z,48.97
2019-01-23T12:07:51.351Z,44.53
2019-01-23T12:10:22.352Z,42.20
2019-01-23T12:12:51.068Z,54.03
2019-01-23T12:15:21.399Z,44.43
2019-01-23T12:17:49.798Z,49.13
2019-01-23T12:20:18.631Z,49.63
2019-01-23T12:22:47.181Z,53.87
2019-01-23T12:25:15.733Z,46.00
2019-01-23T12:27:44.115Z,54.87
2019-01-23T12:30:23.884Z,49.83
2019-01-23T12:32:52.342Z,55.20
2019-01-23T12:35:20.720Z,47.30
2019-01-23T12:37:49.113Z,51.10
2019-01-23T12:40:18.128Z,56.50
2019-01-23T12:42:46.512Z,54.00
2019-01-23T12:45:20.105Z,56.90
2019-01-23T12:47:48.491Z,56.07
2019-01-23T12:50:20.213Z,54.90
2019-01-23T12:52:48.606Z,52.60
2019-01-23T12:55:17.155Z,60.00
2019-01-23T12:57:45.543Z,49.13
2019-01-23T13:00:19.867Z,53.40
2019-01-23T13:02:48.429Z,48.53
2019-01-23T13:05:19.453Z,46.37
2019-01-23T13:07:47.835Z,48.10
2019-01-23T13:10:18.253Z,50.80
2019-01-23T13:12:46.806Z,57.23
2019-01-23T13:15:20.055Z,55.50
2019-01-23T13:17:48.452Z,50.70
2019-01-23T13:20:18.866Z,47.30
2019-01-23T13:22:47.249Z,59.97
2019-01-23T13:25:18.098Z,51.83
2019-01-23T13:27:46.675Z,60.63
2019-01-23T13:30:20.242Z,53.47
2019-01-23T13:32:48.800Z,61.33
2019-01-23T13:35:22.422Z,63.53
2019-01-23T13:37:50.976Z,55.90
2019-01-23T13:40:22.190Z,60.60
2019-01-23T13:42:50.619Z,57.10
2019-01-23T13:45:19.127Z,57.27
2019-01-23T13:47:47.783Z,53.77
2019-01-23T13:50:16.327Z,64.57
2019-01-23T13:52:44.715Z,62.30
2019-01-23T13:55:16.200Z,58.03
2019-01-23T13:57:44.587Z,58.37
2019-01-23T14:00:18.629Z,58.13
2019-01-23T14:02:47.016Z,57.87
2019-01-23T14:05:15.740Z,51.10
2019-01-23T14:07:44.139Z,57.97
2019-01-23T14:10:17.539Z,56.70
2019-01-23T14:12:45.923Z,59.60
2019-01-23T14:15:23.160Z,61.40
2019-01-23T14:17:51.567Z,66.23
2019-01-23T14:20:19.956Z,59.53
2019-01-23T14:22:48.348Z,66.33
2019-01-23T14:25:17.477Z,64.30
2019-01-23T14:27:45.860Z,60.37
2019-01-23T14:30:26.373Z,56.73
2019-01-23T14:32:54.741Z,61.93
2019-01-23T14:35:23.122Z,61.97
2019-01-23T14:37:51.509Z,58.73
2019-01-23T14:40:19.889Z,59.30
2019-01-23T14:42:48.282Z,60.07
2019-01-23T14:45:18.429Z,58.93
2019-01-23T14:47:47.036Z,59.63
2019-01-23T14:50:20.032Z,66.10
2019-01-23T14:52:49.153Z,65.17
2019-01-23T14:55:17.597Z,62.23
2019-01-23T14:57:46.156Z,71.50
2019-01-23T15:00:22.986Z,71.70
2019-01-23T15:02:51.371Z,67.30
2019-01-23T15:05:19.925Z,59.63
2019-01-23T15:07:48.305Z,75.73
2019-01-23T15:10:28.023Z,60.63
2019-01-23T15:12:56.558Z,67.17
2019-01-23T15:15:25.080Z,68.30
2019-01-23T15:17:53.989Z,66.73
2019-01-23T15:20:28.307Z,54.57
2019-01-23T15:22:56.689Z,67.47
2019-01-23T15:25:25.076Z,54.83
2019-01-23T15:27:53.456Z,65.40
2019-01-23T15:30:23.685Z,57.73
2019-01-23T15:32:52.367Z,71.37
2019-01-23T15:35:22.074Z,72.20
2019-01-23T15:37:50.457Z,70.03
2019-01-23T15:40:21.730Z,65.73
2019-01-23T15:42:50.104Z,58.37
2019-01-23T15:45:18.557Z,40.70
2019-01-23T15:47:46.941Z,71.70
2019-01-23T15:50:18.168Z,70.80
2019-01-23T15:52:46.550Z,70.00
2019-01-23T15:55:17.477Z,65.87
2019-01-23T15:57:45.851Z,61.97
2019-01-23T16:00:54.163Z,75.43
2019-01-23T16:03:22.549Z,56.77
2019-01-23T16:06:10.187Z,65.37
2019-01-23T16:08:38.623Z,77.50
2019-01-23T16:13:54.454Z,60.80
2019-01-23T16:16:42.073Z,64.07
2019-01-23T16:19:10.481Z,72.90
2019-01-23T16:21:57.980Z,73.77
2019-01-23T16:24:26.368Z,77.73
2019-01-23T16:26:54.751Z,65.50
2019-01-23T16:29:23.141Z,70.23
2019-01-23T16:31:51.521Z,72.83
2019-01-23T16:34:19.908Z,70.90
2019-01-23T16:36:48.286Z,67.40
2019-01-23T16:39:16.680Z,70.57
2019-01-23T16:41:45.055Z,65.47
2019-01-23T16:44:13.616Z,68.73
2019-01-23T16:46:42.005Z,69.00
2019-01-23T16:49:10.439Z,61.47
2019-01-23T16:51:38.817Z,68.67
2019-01-23T16:54:07.202Z,72.63
2019-01-23T16:56:35.647Z,55.23
2019-01-23T16:59:04.577Z,71.27
2019-01-23T17:01:33.134Z,70.37
2019-01-23T17:04:01.458Z,60.10
2019-01-23T17:06:28.835Z,75.33
2019-01-23T17:08:57.155Z,49.43
2019-01-23T17:11:25.544Z,61.43
2019-01-23T17:13:54.028Z,54.07
2019-01-23T17:16:22.445Z,69.13
2019-01-23T17:18:50.790Z,70.30
2019-01-23T17:21:19.176Z,69.40
2019-01-23T17:23:47.558Z,51.53
2019-01-23T17:26:15.944Z,59.87
2019-01-23T17:28:44.322Z,72.37
2019-01-23T17:31:12.707Z,68.00
2019-01-23T17:33:41.089Z,64.33
2019-01-23T17:36:09.476Z,67.13
2019-01-23T17:38:37.856Z,67.07
2019-01-23T17:41:06.245Z,48.10
2019-01-23T17:43:35.096Z,73.63
2019-01-23T17:46:03.478Z,66.17
2019-01-23T17:48:31.860Z,60.47
2019-01-23T17:51:00.250Z,48.17
2019-01-23T17:53:28.625Z,63.53
2019-01-23T17:55:57.016Z,56.80
2019-01-23T17:58:25.397Z,65.57
2019-01-23T18:00:56.654Z,68.23
2019-01-23T18:03:25.094Z,62.80
2019-01-23T18:05:53.547Z,61.43
2019-01-23T18:08:21.926Z,75.43
2019-01-23T18:10:50.318Z,61.07
2019-01-23T18:13:18.694Z,66.00
2019-01-23T18:15:47.091Z,75.37
2019-01-23T18:18:15.469Z,75.03
2019-01-23T18:20:43.940Z,60.33
2019-01-23T18:23:12.408Z,62.07
2019-01-23T18:25:40.804Z,68.10
2019-01-23T18:28:09.181Z,63.33
2019-01-23T18:30:43.220Z,57.60
2019-01-23T18:33:14.674Z,61.70
2019-01-23T18:35:58.242Z,73.97
2019-01-23T18:38:38.781Z,52.43
2019-01-23T18:41:36.084Z,65.00
2019-01-23T18:44:16.199Z,69.97
2019-01-23T18:47:05.600Z,62.43
2019-01-23T18:50:07.167Z,71.40
2019-01-23T18:52:35.616Z,74.40
2019-01-23T18:55:06.315Z,78.57
2019-01-23T18:57:34.847Z,61.53
2019-01-23T19:00:04.751Z,72.63
2019-01-23T19:02:33.283Z,66.80
2019-01-23T19:05:01.673Z,68.87
2019-01-23T19:07:30.226Z,76.73
2019-01-23T19:09:58.606Z,66.20
2019-01-23T19:12:27.050Z,69.47
2019-01-23T19:14:55.426Z,77.20
2019-01-23T19:17:23.883Z,69.77
2019-01-23T19:19:52.264Z,64.60
2019-01-23T19:22:20.883Z,78.60
2019-01-23T19:24:49.275Z,75.33
2019-01-23T19:27:17.669Z,76.07
2019-01-23T19:29:46.034Z,83.90
2019-01-23T19:34:42.904Z,78.60
2019-01-23T19:37:11.299Z,78.07
2019-01-23T19:39:39.665Z,68.30
2019-01-23T19:42:08.053Z,76.37
2019-01-23T19:44:36.467Z,81.40
2019-01-23T19:47:04.917Z,69.07
2019-01-23T19:49:33.331Z,69.37
2019-01-23T19:52:01.687Z,66.87
2019-01-23T19:54:30.073Z,71.10
2019-01-23T19:56:58.520Z,75.73
2019-01-23T19:59:26.922Z,76.27
2019-01-23T20:01:55.302Z,86.33
2019-01-23T20:04:23.753Z,89.13
2019-01-23T20:06:52.131Z,91.23
2019-01-23T20:09:20.518Z,98.13
2019-01-23T20:11:48.900Z,86.63
2019-01-23T20:14:17.543Z,84.13
2019-01-23T20:16:45.926Z,80.23
2019-01-23T20:19:14.317Z,96.70
2019-01-23T20:21:42.703Z,73.87
2019-01-23T20:24:11.083Z,97.47
2019-01-23T20:26:39.463Z,80.57
2019-01-23T20:29:08.117Z,86.63
2019-01-23T20:31:36.497Z,95.07
2019-01-23T20:34:05.618Z,99.50
2019-01-23T20:36:34.028Z,86.00
2019-01-23T20:39:02.413Z,99.70
2019-01-23T20:41:30.787Z,87.53
2019-01-23T20:43:59.185Z,103.53
2019-01-23T20:46:27.561Z,76.80
2019-01-23T20:48:55.971Z,94.93
2019-01-23T20:51:24.347Z,91.83
2019-01-23T20:53:52.736Z,92.90
2019-01-23T20:56:21.111Z,97.37
2019-01-23T20:58:49.501Z,108.43
2019-01-23T21:01:17.983Z,103.57
2019-01-23T21:03:46.472Z,70.97
2019-01-23T21:06:14.856Z,106.70
2019-01-23T21:08:43.245Z,100.47
2019-01-23T21:11:11.727Z,100.37
2019-01-23T21:13:40.191Z,103.93
2019-01-23T21:16:08.620Z,99.50
2019-01-23T21:18:37.012Z,96.57
2019-01-23T21:21:05.416Z,80.30
2019-01-23T21:23:33.798Z,112.27
2019-01-23T21:26:02.204Z,115.70
2019-01-23T21:28:30.654Z,113.33
2019-01-23T21:30:59.151Z,112.00
2019-01-23T21:33:27.829Z,112.67
2019-01-23T21:35:56.283Z,114.90
2019-01-23T21:38:24.669Z,114.73
2019-01-23T21:40:53.051Z,75.90
2019-01-23T21:43:21.569Z,94.60
2019-01-23T21:45:50.036Z,110.43
2019-01-23T21:48:18.428Z,103.67
2019-01-23T21:50:46.892Z,120.63
2019-01-23T21:53:15.346Z,116.60
2019-01-23T21:55:43.808Z,118.17
2019-01-23T21:58:12.205Z,99.13
2019-01-23T22:00:42.759Z,116.90
2019-01-23T22:03:11.994Z,116.70
2019-01-23T22:05:40.372Z,116.07
2019-01-23T22:08:09.018Z,100.47
2019-01-23T22:10:37.390Z,118.03
2019-01-23T22:13:05.864Z,105.67
2019-01-23T22:15:34.767Z,118.87
2019-01-23T22:18:03.691Z,117.80
2019-01-23T22:20:32.293Z,116.10
2019-01-23T22:23:00.745Z,119.37
2019-01-23T22:25:29.216Z,106.37
2019-01-23T22:28:06.738Z,117.93
2019-01-23T22:30:35.282Z,123.20
2019-01-23T22:33:03.812Z,131.47
2019-01-23T22:35:32.217Z,102.03
2019-01-23T22:38:00.637Z,114.60
2019-01-23T22:40:29.098Z,115.17
2019-01-23T22:42:57.544Z,109.97
2019-01-23T22:45:26.017Z,127.43
2019-01-23T22:47:54.505Z,135.60
2019-01-23T22:50:25.688Z,127.00
2019-01-23T22:52:54.069Z,138.30
2019-01-23T22:55:22.765Z,129.20
2019-01-23T22:57:51.215Z,138.57
2019-01-23T23:00:44.582Z,139.97
2019-01-23T23:03:14.573Z,141.17
2019-01-23T23:05:42.964Z,122.27
2019-01-23T23:08:11.336Z,122.77
2019-01-23T23:10:39.911Z,117.97
2019-01-23T23:13:08.362Z,141.67
2019-01-23T23:15:36.753Z,140.53
2019-01-23T23:18:05.606Z,147.87
2019-01-23T23:20:34.061Z,141.80
2019-01-23T23:23:02.464Z,122.50
2019-01-23T23:25:30.832Z,163.63
2019-01-23T23:27:59.224Z,135.27
2019-01-23T23:30:28.219Z,130.67
2019-01-23T23:32:56.609Z,147.53
2019-01-23T23:35:25.058Z,126.30
2019-01-23T23:37:53.456Z,152.90
2019-01-23T23:40:21.959Z,140.67
2019-01-23T23:42:50.717Z,129.30
2019-01-23T23:45:19.601Z,142.27
2019-01-23T23:47:47.987Z,146.30
2019-01-23T23:50:17.642Z,106.70
2019-01-23T23:52:46.073Z,147.60
2019-01-23T23:55:16.399Z,113.33
2019-01-23T23:57:45.328Z,142.17
